createdAt,value
2019-05-22T00:01:08.573Z,99
2019-05-22T00:02:18.720Z,98.62
2019-05-22T00:03:28.897Z,98.81
2019-05-22T00:04:39.013Z,98.52
2019-05-22T00:05:49.698Z,98.24
2019-05-22T00:06:59.848Z,98.52
2019-05-22T00:08:10.183Z,98.52
2019-05-22T00:09:20.473Z,98.52
2019-05-22T00:10:30.621Z,98.33
2019-05-22T00:11:40.746Z,98.52
2019-05-22T00:12:50.884Z,98.52
2019-05-22T00:14:01.018Z,98.52
2019-05-22T00:15:11.136Z,98.52
2019-05-22T00:16:21.494Z,98.71
2019-05-22T00:17:31.410Z,98.05
2019-05-22T00:18:41.572Z,99
2019-05-22T00:19:51.889Z,98.91
2019-05-22T00:21:01.801Z,98.76
2019-05-22T00:22:12.039Z,98.47
2019-05-22T00:23:22.140Z,98.91
2019-05-22T00:24:32.272Z,98.81
2019-05-22T00:25:42.401Z,99.48
2019-05-22T00:26:52.525Z,98.91
2019-05-22T00:28:02.654Z,98.66
2019-05-22T00:29:12.772Z,98.81
2019-05-22T00:30:22.907Z,98.76
2019-05-22T00:31:32.768Z,98.33
2019-05-22T00:32:42.878Z,98.86
2019-05-22T00:33:52.990Z,99
2019-05-22T00:35:03.115Z,98.62
2019-05-22T00:36:13.236Z,98.57
2019-05-22T00:37:23.381Z,98.52
2019-05-22T00:38:33.574Z,98.19
2019-05-22T00:39:43.689Z,98.05
2019-05-22T00:40:54.179Z,97.95
2019-05-22T00:42:04.293Z,98.28
2019-05-22T00:43:16.777Z,98.24
2019-05-22T00:44:26.930Z,98.09
2019-05-22T00:45:37.043Z,97.8
2019-05-22T00:46:46.791Z,98.47
2019-05-22T00:47:56.898Z,98.19
2019-05-22T00:49:07.070Z,97.71
2019-05-22T00:50:17.178Z,97.52
2019-05-22T00:51:27.282Z,97.71
2019-05-22T00:52:37.405Z,97.71
2019-05-22T00:53:47.625Z,97.42
2019-05-22T00:54:57.749Z,97.33
2019-05-22T00:56:07.865Z,97.61
2019-05-22T00:57:17.982Z,97.8
2019-05-22T00:58:27.850Z,97.8
2019-05-22T00:59:38.010Z,97.42
2019-05-22T01:00:48.136Z,97.71
2019-05-22T01:01:58.244Z,98.19
2019-05-22T01:03:08.454Z,98
2019-05-22T01:04:18.587Z,98.09
2019-05-22T01:05:28.733Z,97.04
2019-05-22T01:06:38.935Z,97.9
2019-05-22T01:07:49.105Z,97.8
2019-05-22T01:08:59.246Z,97.8
2019-05-22T01:10:09.890Z,97.52
2019-05-22T01:11:20.021Z,97.71
2019-05-22T01:12:29.887Z,97.8
2019-05-22T01:13:40.006Z,97.52
2019-05-22T01:14:50.206Z,97.9
2019-05-22T01:16:00.309Z,97.42
2019-05-22T01:17:10.451Z,97.71
2019-05-22T01:18:20.578Z,98.09
2019-05-22T01:19:30.745Z,97.8
2019-05-22T01:20:40.944Z,97.04
2019-05-22T01:21:51.044Z,97.9
2019-05-22T01:23:01.159Z,97.9
2019-05-22T01:24:11.299Z,97.52
2019-05-22T01:25:21.427Z,97.04
2019-05-22T01:26:31.277Z,97.13
2019-05-22T01:27:41.406Z,96.94
2019-05-22T01:28:51.531Z,97.52
2019-05-22T01:30:01.647Z,97.42
2019-05-22T01:31:11.801Z,96.94
2019-05-22T01:32:21.951Z,97.33
2019-05-22T01:33:32.071Z,97.33
2019-05-22T01:34:42.182Z,97.13
2019-05-22T01:35:52.323Z,96.94
2019-05-22T01:37:02.521Z,96.75
2019-05-22T01:38:12.293Z,96.75
2019-05-22T01:39:22.417Z,96.75
2019-05-22T01:40:32.523Z,97.33
2019-05-22T01:41:42.631Z,97.33
2019-05-22T01:42:52.774Z,97.33
2019-05-22T01:44:02.885Z,97.13
2019-05-22T01:45:13.003Z,97.04
2019-05-22T01:46:23.107Z,97.42
2019-05-22T01:47:33.236Z,97.13
2019-05-22T01:48:43.355Z,96.75
2019-05-22T01:49:53.462Z,96.56
2019-05-22T01:51:03.626Z,96.18
2019-05-22T01:52:13.779Z,96.47
2019-05-22T01:53:23.648Z,95.98
2019-05-22T01:54:33.794Z,95.89
2019-05-22T01:55:43.967Z,95.22
2019-05-22T01:56:54.128Z,95.41
2019-05-22T01:58:04.240Z,95.03
2019-05-22T01:59:14.340Z,95.22
2019-05-22T02:00:24.455Z,94.93
2019-05-22T02:01:34.574Z,94.26
2019-05-22T02:02:44.683Z,94.74
2019-05-22T02:03:54.815Z,94.26
2019-05-22T02:05:04.926Z,94.17
2019-05-22T02:06:15.081Z,94.21
2019-05-22T02:07:25.188Z,94.12
2019-05-22T02:08:35.302Z,94.21
2019-05-22T02:09:45.411Z,94.41
2019-05-22T02:10:55.532Z,93.93
2019-05-22T02:12:05.636Z,94.12
2019-05-22T02:13:15.787Z,93.93
2019-05-22T02:14:25.694Z,94.12
2019-05-22T02:15:35.807Z,93.93
2019-05-22T02:16:58.922Z,94.21
2019-05-22T02:18:09.146Z,93.84
2019-05-22T02:19:19.284Z,93.74
2019-05-22T02:20:29.160Z,93.93
2019-05-22T02:21:39.272Z,93.74
2019-05-22T02:22:49.433Z,93.55
2019-05-22T02:23:59.534Z,93.45
2019-05-22T02:25:09.656Z,93.74
2019-05-22T02:26:20.256Z,93.84
2019-05-22T02:27:30.366Z,93.84
2019-05-22T02:28:40.497Z,93.84
2019-05-22T02:29:50.620Z,93.64
2019-05-22T02:31:00.754Z,93.84
2019-05-22T02:32:10.893Z,93.45
2019-05-22T02:33:21.094Z,93.93
2019-05-22T02:34:31.221Z,94.41
2019-05-22T02:35:41.437Z,94.21
2019-05-22T02:36:51.577Z,93.84
2019-05-22T02:38:01.704Z,93.93
2019-05-22T02:39:11.890Z,93.84
2019-05-22T02:40:22.117Z,93.93
2019-05-22T02:41:32.252Z,94.12
2019-05-22T02:42:42.424Z,94.12
2019-05-22T02:43:52.550Z,94.89
2019-05-22T02:45:02.677Z,94.89
2019-05-22T02:46:12.879Z,94.7
2019-05-22T02:47:24.160Z,94.7
2019-05-22T02:48:34.339Z,94.89
2019-05-22T02:49:47.797Z,94.6
2019-05-22T02:50:58.004Z,94.89
2019-05-22T02:52:08.142Z,94.79
2019-05-22T02:53:18.270Z,94.79
2019-05-22T02:54:28.386Z,95.27
2019-05-22T02:55:38.513Z,94.7
2019-05-22T02:56:48.635Z,94.98
2019-05-22T02:57:58.777Z,95.07
2019-05-22T02:59:08.952Z,94.7
2019-05-22T03:00:19.091Z,94.6
2019-05-22T03:01:29.295Z,94.6
2019-05-22T03:02:39.433Z,94.79
2019-05-22T03:03:49.570Z,95.07
2019-05-22T03:04:59.451Z,94.98
2019-05-22T03:06:09.807Z,94.98
2019-05-22T03:07:19.937Z,94.98
2019-05-22T03:08:30.051Z,94.6
2019-05-22T03:09:40.163Z,94.89
2019-05-22T03:10:52.142Z,94.89
2019-05-22T03:12:02.275Z,94.12
2019-05-22T03:13:12.394Z,94.6
2019-05-22T03:14:22.510Z,94.26
2019-05-22T03:15:32.613Z,94.41
2019-05-22T03:16:42.474Z,94.21
2019-05-22T03:17:52.587Z,94.93
2019-05-22T03:19:11.635Z,94.79
2019-05-22T03:20:21.763Z,94.89
2019-05-22T03:21:31.960Z,95.36
2019-05-22T03:22:42.115Z,95.32
2019-05-22T03:23:52.265Z,95.03
2019-05-22T03:25:02.394Z,94.7
2019-05-22T03:26:12.541Z,94.89
2019-05-22T03:27:22.705Z,94.46
2019-05-22T03:28:32.809Z,94.46
2019-05-22T03:29:42.928Z,95.03
2019-05-22T03:30:53.095Z,94.46
2019-05-22T03:32:03.221Z,95.12
2019-05-22T03:33:13.431Z,94.93
2019-05-22T03:34:23.626Z,94.93
2019-05-22T03:35:34.130Z,95.03
2019-05-22T03:36:44.312Z,95.79
2019-05-22T03:37:54.441Z,95.61
2019-05-22T03:39:04.666Z,95.79
2019-05-22T03:40:14.793Z,96.08
2019-05-22T03:41:24.944Z,95.51
2019-05-22T03:42:34.706Z,96.18
2019-05-22T03:43:44.615Z,95.51
2019-05-22T03:44:54.759Z,96.18
2019-05-22T03:46:04.906Z,95.89
2019-05-22T03:47:15.033Z,95.79
2019-05-22T03:48:25.187Z,96.08
2019-05-22T03:49:35.316Z,95.79
2019-05-22T03:50:45.449Z,95.61
2019-05-22T03:51:55.338Z,95.79
2019-05-22T03:53:05.475Z,95.7
2019-05-22T03:54:15.608Z,96.18
2019-05-22T03:55:25.728Z,95.51
2019-05-22T03:56:35.854Z,96.18
2019-05-22T03:57:46.104Z,96.66
2019-05-22T03:58:56.232Z,96.37
2019-05-22T04:00:06.375Z,96.47
2019-05-22T04:01:16.505Z,96.75
2019-05-22T04:02:26.658Z,96.27
2019-05-22T04:03:36.883Z,96.47
2019-05-22T04:04:47.032Z,95.79
2019-05-22T04:05:57.166Z,96.08
2019-05-22T04:07:07.341Z,95.51
2019-05-22T04:08:17.690Z,95.98
2019-05-22T04:09:27.812Z,96.08
2019-05-22T04:10:40.943Z,95.51
2019-05-22T04:11:51.295Z,95.51
2019-05-22T04:13:01.504Z,95.7
2019-05-22T04:14:11.631Z,95.61
2019-05-22T04:15:21.825Z,95.61
2019-05-22T04:16:31.940Z,95.7
2019-05-22T04:17:41.865Z,95.41
2019-05-22T04:18:52.014Z,95.98
2019-05-22T04:20:02.155Z,94.93
2019-05-22T04:21:12.285Z,94.74
2019-05-22T04:22:22.157Z,94.74
2019-05-22T04:23:32.342Z,95.22
2019-05-22T04:24:42.513Z,95.03
2019-05-22T04:25:55.885Z,95.03
2019-05-22T04:27:06.095Z,95.22
2019-05-22T04:28:16.236Z,95.12
2019-05-22T04:29:26.352Z,95.03
2019-05-22T04:30:36.492Z,95.22
2019-05-22T04:31:46.604Z,95.32
2019-05-22T04:32:56.808Z,95.12
2019-05-22T04:34:06.961Z,94.93
2019-05-22T04:35:17.081Z,95.03
2019-05-22T04:36:27.198Z,95.32
2019-05-22T04:37:37.310Z,95.22
2019-05-22T04:38:47.434Z,94.55
2019-05-22T04:39:57.573Z,94.55
2019-05-22T04:41:07.689Z,94.74
2019-05-22T04:42:17.828Z,94.65
2019-05-22T04:43:27.963Z,94.74
2019-05-22T04:44:38.106Z,94.65
2019-05-22T04:45:47.953Z,94.55
2019-05-22T04:46:58.106Z,94.84
2019-05-22T04:48:08.286Z,94.07
2019-05-22T04:49:18.414Z,94.12
2019-05-22T04:50:28.545Z,94.17
2019-05-22T04:51:38.904Z,93.88
2019-05-22T04:52:49.120Z,94.07
2019-05-22T04:53:59.011Z,93.88
2019-05-22T04:55:09.146Z,93.88
2019-05-22T04:56:19.291Z,93.98
2019-05-22T04:57:29.436Z,94.17
2019-05-22T04:58:39.549Z,94.07
2019-05-22T04:59:49.723Z,93.69
2019-05-22T05:00:59.870Z,94.36
2019-05-22T05:02:10.215Z,94.07
2019-05-22T05:03:20.330Z,94.07
2019-05-22T05:04:30.459Z,93.6
2019-05-22T05:05:40.603Z,93.6
2019-05-22T05:06:50.751Z,93.6
2019-05-22T05:08:00.881Z,93.6
2019-05-22T05:09:11.016Z,93.5
2019-05-22T05:10:21.145Z,93.4
2019-05-22T05:11:31.265Z,93.5
2019-05-22T05:12:41.130Z,93.6
2019-05-22T05:13:51.244Z,93.5
2019-05-22T05:15:01.100Z,93.5
2019-05-22T05:16:11.234Z,92.93
2019-05-22T05:17:21.347Z,93.69
2019-05-22T05:18:31.468Z,93.6
2019-05-22T05:19:41.601Z,93.6
2019-05-22T05:20:51.728Z,93.6
2019-05-22T05:22:01.832Z,93.6
2019-05-22T05:23:11.959Z,93.5
2019-05-22T05:24:22.070Z,93.31
2019-05-22T05:25:32.197Z,93.55
2019-05-22T05:26:42.315Z,93.55
2019-05-22T05:27:52.452Z,93.55
2019-05-22T05:29:02.610Z,93.84
2019-05-22T05:30:12.733Z,93.74
2019-05-22T05:31:22.850Z,93.74
2019-05-22T05:32:33.024Z,93.79
2019-05-22T05:33:43.131Z,93.45
2019-05-22T05:34:53.233Z,93.5
2019-05-22T05:36:03.453Z,93.6
2019-05-22T05:37:13.563Z,93.55
2019-05-22T05:38:23.688Z,93.74
2019-05-22T05:39:33.820Z,93.74
2019-05-22T05:40:43.998Z,93.65
2019-05-22T05:41:54.155Z,93.55
2019-05-22T05:43:04.290Z,93.74
2019-05-22T05:44:14.422Z,92.69
2019-05-22T05:45:24.534Z,92.83
2019-05-22T05:46:34.656Z,93.16
2019-05-22T05:47:44.768Z,93.4
2019-05-22T05:48:54.889Z,93.4
2019-05-22T05:50:05.025Z,93.21
2019-05-22T05:51:15.190Z,93.12
2019-05-22T05:52:25.308Z,93.12
2019-05-22T05:53:35.427Z,93.12
2019-05-22T05:54:45.538Z,92.83
2019-05-22T05:55:55.421Z,92.83
2019-05-22T05:57:05.544Z,93.12
2019-05-22T05:58:15.662Z,93.16
2019-05-22T05:59:25.834Z,92.83
2019-05-22T06:00:35.605Z,93.12
2019-05-22T06:01:50.005Z,92.83
2019-05-22T06:03:00.149Z,93.21
2019-05-22T06:04:10.274Z,92.54
2019-05-22T06:05:20.388Z,92.64
2019-05-22T06:06:30.457Z,92.45
2019-05-22T06:07:40.580Z,92.35
2019-05-22T06:08:50.707Z,92.45
2019-05-22T06:10:00.557Z,92.64
2019-05-22T06:11:10.746Z,92.54
2019-05-22T06:12:20.867Z,92.16
2019-05-22T06:13:31.013Z,91.78
2019-05-22T06:14:41.165Z,91.68
2019-05-22T06:15:51.305Z,91.88
2019-05-22T06:17:01.465Z,91.97
2019-05-22T06:18:11.619Z,91.78
2019-05-22T06:19:21.743Z,91.97
2019-05-22T06:20:31.640Z,91.97
2019-05-22T06:21:41.768Z,91.78
2019-05-22T06:22:51.906Z,91.68
2019-05-22T06:24:02.033Z,91.88
2019-05-22T06:25:12.312Z,91.78
2019-05-22T06:26:22.531Z,91.78
2019-05-22T06:27:32.651Z,91.68
2019-05-22T06:28:42.794Z,91.88
2019-05-22T06:29:52.926Z,91.97
2019-05-22T06:31:03.189Z,91.97
2019-05-22T06:32:13.302Z,91.88
2019-05-22T06:33:23.447Z,91.97
2019-05-22T06:34:33.662Z,91.3
2019-05-22T06:35:43.775Z,90.73
2019-05-22T06:36:53.918Z,90.73
2019-05-22T06:38:04.041Z,90.73
2019-05-22T06:39:14.293Z,90.82
2019-05-22T06:40:24.628Z,91.02
2019-05-22T06:41:34.521Z,90.82
2019-05-22T06:42:44.627Z,90.34
2019-05-22T06:43:54.754Z,89.67
2019-05-22T06:45:05.774Z,90.06
2019-05-22T06:46:16.177Z,89.77
2019-05-22T06:47:26.307Z,89.87
2019-05-22T06:48:36.424Z,89.87
2019-05-22T06:49:46.629Z,89.39
2019-05-22T06:50:56.505Z,89.29
2019-05-22T06:52:21.596Z,89.29
2019-05-22T06:53:31.710Z,89.39
2019-05-22T06:54:41.825Z,89.48
2019-05-22T06:55:51.929Z,89.48
2019-05-22T06:57:02.051Z,89.58
2019-05-22T06:58:12.163Z,89.2
2019-05-22T06:59:22.558Z,89.01
2019-05-22T07:00:32.708Z,88.81
2019-05-22T07:01:42.840Z,89.01
2019-05-22T07:02:52.987Z,89.01
2019-05-22T07:04:03.090Z,88.91
2019-05-22T07:05:12.962Z,89.01
2019-05-22T07:06:23.082Z,88.91
2019-05-22T07:07:33.203Z,89.48
2019-05-22T07:08:43.386Z,89.39
2019-05-22T07:09:53.507Z,89.2
2019-05-22T07:11:03.615Z,89.58
2019-05-22T07:12:14.109Z,89.2
2019-05-22T07:13:24.262Z,89.1
2019-05-22T07:14:34.378Z,89.39
2019-05-22T07:15:44.517Z,89.48
2019-05-22T07:16:54.672Z,89.1
2019-05-22T07:18:04.953Z,89.1
2019-05-22T07:19:18.129Z,89.87
2019-05-22T07:20:28.234Z,89.58
2019-05-22T07:21:38.128Z,89.96
2019-05-22T07:22:48.307Z,89.39
2019-05-22T07:23:58.521Z,89.39
2019-05-22T07:25:08.684Z,88.81
2019-05-22T07:26:18.826Z,88.81
2019-05-22T07:27:28.952Z,88.91
2019-05-22T07:28:39.136Z,89.01
2019-05-22T07:29:49.100Z,88.38
2019-05-22T07:30:59.243Z,88.43
2019-05-22T07:32:09.383Z,88.19
2019-05-22T07:33:19.510Z,88.19
2019-05-22T07:34:29.628Z,87.71
2019-05-22T07:36:09.759Z,87.52
2019-05-22T07:37:24.833Z,86.9
2019-05-22T07:38:34.964Z,87.33
2019-05-22T07:39:45.081Z,86.94
2019-05-22T07:40:55.216Z,86.85
2019-05-22T07:42:05.357Z,86.66
2019-05-22T07:43:15.466Z,86.66
2019-05-22T07:44:25.677Z,86.28
2019-05-22T07:45:35.807Z,87.14
2019-05-22T07:46:46.484Z,86.47
2019-05-22T07:47:56.620Z,86.57
2019-05-22T07:49:07.016Z,86.28
2019-05-22T07:50:17.134Z,85.99
2019-05-22T07:51:27.308Z,86.18
2019-05-22T07:52:54.418Z,86.18
2019-05-22T07:54:04.575Z,85.8
2019-05-22T07:55:14.729Z,85.89
2019-05-22T07:56:25.102Z,86.18
2019-05-22T07:57:34.969Z,85.99
2019-05-22T07:58:45.154Z,85.8
2019-05-22T07:59:55.313Z,85.99
2019-05-22T08:01:05.195Z,85.22
2019-05-22T08:02:15.324Z,85.32
2019-05-22T08:03:25.203Z,85.22
2019-05-22T08:04:35.331Z,85.13
2019-05-22T08:05:45.445Z,84.94
2019-05-22T08:06:55.588Z,85.32
2019-05-22T08:08:05.722Z,85.61
2019-05-22T08:09:15.886Z,85.99
2019-05-22T08:10:26.081Z,85.99
2019-05-22T08:11:36.288Z,86.08
2019-05-22T08:12:46.526Z,85.99
2019-05-22T08:13:56.642Z,86.18
2019-05-22T08:15:06.911Z,86.28
2019-05-22T08:16:17.090Z,86.47
2019-05-22T08:17:27.532Z,86.66
2019-05-22T08:18:37.657Z,85.89
2019-05-22T08:19:47.821Z,85.89
2019-05-22T08:20:57.967Z,85.89
2019-05-22T08:22:10.385Z,86.08
2019-05-22T08:23:20.513Z,85.89
2019-05-22T08:24:30.637Z,86.37
2019-05-22T08:25:40.792Z,85.99
2019-05-22T08:26:57.199Z,85.89
2019-05-22T08:28:06.850Z,86.18
2019-05-22T08:29:17.097Z,85.99
2019-05-22T08:30:27.284Z,85.61
2019-05-22T08:31:37.216Z,85.99
2019-05-22T08:32:47.432Z,86.28
2019-05-22T08:33:57.634Z,86.37
2019-05-22T08:35:07.506Z,86.47
2019-05-22T08:36:17.656Z,86.85
2019-05-22T08:37:27.782Z,86.57
2019-05-22T08:38:37.963Z,86.47
2019-05-22T08:39:48.131Z,86.37
2019-05-22T08:40:58.298Z,86.76
2019-05-22T08:42:08.481Z,87.04
2019-05-22T08:43:18.625Z,86.66
2019-05-22T08:44:28.801Z,87.04
2019-05-22T08:45:39.065Z,86.57
2019-05-22T08:46:49.204Z,86.18
2019-05-22T08:47:59.675Z,86.08
2019-05-22T08:49:09.800Z,87.04
2019-05-22T08:50:20.070Z,86.57
2019-05-22T08:51:30.199Z,86.85
2019-05-22T08:52:40.324Z,86.57
2019-05-22T08:53:51.348Z,86.57
2019-05-22T08:55:01.512Z,86.76
2019-05-22T08:56:11.639Z,86.85
2019-05-22T08:57:21.753Z,86.57
2019-05-22T08:58:31.878Z,86.76
2019-05-22T08:59:42.018Z,86.66
2019-05-22T09:00:52.150Z,87.14
2019-05-22T09:02:02.314Z,86.66
2019-05-22T09:03:12.447Z,86.85
2019-05-22T09:04:22.571Z,86.94
2019-05-22T09:05:32.739Z,87.04
2019-05-22T09:06:42.886Z,87.23
2019-05-22T09:07:52.751Z,87.14
2019-05-22T09:09:02.869Z,86.66
2019-05-22T09:10:13.014Z,86.76
2019-05-22T09:11:23.184Z,86.85
2019-05-22T09:12:33.316Z,86.66
2019-05-22T09:13:43.443Z,86.94
2019-05-22T09:14:53.307Z,86.57
2019-05-22T09:16:04.485Z,86.85
2019-05-22T09:17:14.648Z,86.94
2019-05-22T09:18:24.849Z,86.66
2019-05-22T09:19:34.969Z,87.14
2019-05-22T09:20:52.058Z,87.04
2019-05-22T09:22:02.179Z,87.23
2019-05-22T09:23:12.628Z,87.23
2019-05-22T09:24:22.808Z,86.76
2019-05-22T09:25:33.149Z,87.04
2019-05-22T09:26:43.263Z,87.14
2019-05-22T09:27:53.388Z,86.94
2019-05-22T09:29:03.497Z,87.04
2019-05-22T09:30:13.636Z,86.85
2019-05-22T09:31:23.794Z,86.94
2019-05-22T09:32:33.918Z,86.57
2019-05-22T09:33:44.040Z,86.85
2019-05-22T09:34:54.511Z,86.47
2019-05-22T09:36:04.829Z,86.57
2019-05-22T09:37:14.985Z,86.66
2019-05-22T09:38:25.110Z,87.14
2019-05-22T09:39:35.247Z,87.18
2019-05-22T09:40:45.444Z,87.04
2019-05-22T09:41:55.557Z,86.9
2019-05-22T09:43:05.726Z,86.41
2019-05-22T09:44:17.951Z,86.47
2019-05-22T09:45:28.055Z,86.18
2019-05-22T09:46:38.323Z,86.57
2019-05-22T09:47:48.459Z,86.47
2019-05-22T09:48:58.656Z,85.99
2019-05-22T09:50:08.835Z,85.61
2019-05-22T09:51:19.136Z,86.08
2019-05-22T09:52:29.060Z,85.8
2019-05-22T09:53:39.183Z,85.71
2019-05-22T09:54:49.317Z,85.51
2019-05-22T09:55:59.418Z,85.61
2019-05-22T09:57:09.861Z,85.41
2019-05-22T09:58:20.105Z,85.51
2019-05-22T09:59:30.288Z,85.51
2019-05-22T10:00:40.444Z,85.41
2019-05-22T10:01:50.685Z,85.08
2019-05-22T10:03:00.852Z,85.27
2019-05-22T10:04:11.136Z,85.27
2019-05-22T10:05:21.305Z,84.88
2019-05-22T10:06:31.492Z,84.79
2019-05-22T10:08:01.519Z,84.69
2019-05-22T10:09:11.859Z,85.08
2019-05-22T10:10:21.983Z,85.46
2019-05-22T10:11:31.852Z,85.46
2019-05-22T10:12:41.722Z,86.04
2019-05-22T10:13:51.607Z,85.84
2019-05-22T10:15:01.866Z,86.51
2019-05-22T10:16:13.464Z,86.13
2019-05-22T10:17:23.636Z,86.22
2019-05-22T10:18:33.765Z,86.22
2019-05-22T10:19:43.907Z,86.41
2019-05-22T10:20:54.045Z,86.32
2019-05-22T10:22:04.316Z,86.7
2019-05-22T10:23:18.568Z,86.41
2019-05-22T10:24:28.728Z,86.61
2019-05-22T10:25:38.942Z,86.22
2019-05-22T10:26:49.082Z,86.13
2019-05-22T10:28:01.776Z,86.13
2019-05-22T10:29:11.959Z,85.94
2019-05-22T10:30:21.908Z,85.84
2019-05-22T10:31:31.809Z,85.75
2019-05-22T10:32:41.912Z,85.46
2019-05-22T10:33:54.475Z,86.04
2019-05-22T10:35:04.243Z,85.75
2019-05-22T10:36:15.347Z,85.84
2019-05-22T10:37:25.480Z,86.04
2019-05-22T10:38:35.631Z,85.27
2019-05-22T10:39:45.860Z,86.13
2019-05-22T10:40:58.766Z,86.22
2019-05-22T10:42:09.414Z,86.51
2019-05-22T10:43:19.781Z,86.47
2019-05-22T10:44:29.899Z,86.41
2019-05-22T10:45:40.017Z,86.66
2019-05-22T10:46:50.162Z,85.8
2019-05-22T10:48:00.291Z,86.47
2019-05-22T10:49:10.440Z,86.28
2019-05-22T10:50:20.574Z,86.37
2019-05-22T10:51:30.718Z,85.89
2019-05-22T10:52:40.860Z,85.94
2019-05-22T10:53:56.939Z,85.46
2019-05-22T10:55:07.068Z,85.08
2019-05-22T10:56:16.964Z,85.08
2019-05-22T10:57:27.115Z,85.36
2019-05-22T10:58:37.299Z,84.46
2019-05-22T10:59:47.438Z,84.88
2019-05-22T11:00:57.659Z,84.79
2019-05-22T11:02:07.801Z,84.69
2019-05-22T11:03:17.934Z,84.98
2019-05-22T11:04:28.057Z,84.98
2019-05-22T11:05:38.213Z,84.69
2019-05-22T11:06:48.330Z,84.22
2019-05-22T11:07:58.211Z,84.88
2019-05-22T11:09:08.461Z,85.32
2019-05-22T11:10:18.580Z,85.36
2019-05-22T11:11:28.729Z,85.71
2019-05-22T11:12:38.860Z,86.32
2019-05-22T11:14:03.472Z,85.94
2019-05-22T11:15:17.237Z,86.04
2019-05-22T11:16:27.388Z,85.36
2019-05-22T11:17:37.497Z,85.41
2019-05-22T11:18:47.649Z,85.75
2019-05-22T11:19:57.797Z,86.22
2019-05-22T11:21:39.896Z,85.17
2019-05-22T11:22:50.044Z,85.94
2019-05-22T11:24:00.256Z,85.75
2019-05-22T11:25:10.405Z,86.22
2019-05-22T11:26:20.518Z,86.13
2019-05-22T11:27:30.660Z,86.13
2019-05-22T11:28:40.789Z,85.08
2019-05-22T11:29:50.915Z,85.46
2019-05-22T11:31:00.809Z,85.08
2019-05-22T11:32:10.974Z,85.03
2019-05-22T11:33:21.098Z,85.32
2019-05-22T11:34:31.404Z,85.99
2019-05-22T11:35:41.637Z,85.99
2019-05-22T11:36:51.771Z,85.89
2019-05-22T11:38:01.901Z,84.84
2019-05-22T11:39:12.137Z,84.65
2019-05-22T11:40:22.312Z,84.65
2019-05-22T11:41:32.424Z,85.03
2019-05-22T11:42:42.568Z,84.94
2019-05-22T11:43:52.750Z,84.41
2019-05-22T11:45:02.523Z,84.02
2019-05-22T11:46:12.630Z,83.93
2019-05-22T11:47:22.525Z,84.12
2019-05-22T11:48:32.812Z,84.02
2019-05-22T11:49:42.941Z,83.73
2019-05-22T11:50:52.840Z,83.16
2019-05-22T11:52:06.369Z,83.79
2019-05-22T11:53:16.485Z,83.69
2019-05-22T11:54:26.632Z,83.83
2019-05-22T11:55:48.004Z,83.45
2019-05-22T11:56:58.143Z,83.26
2019-05-22T11:58:08.271Z,83.31
2019-05-22T11:59:18.412Z,83.73
2019-05-22T12:00:28.561Z,84.02
2019-05-22T12:01:38.448Z,83.64
2019-05-22T12:02:48.613Z,84.31
2019-05-22T12:03:58.785Z,83.83
2019-05-22T12:05:08.930Z,83.83
2019-05-22T12:06:19.056Z,83.64
2019-05-22T12:07:29.259Z,83.64
2019-05-22T12:08:39.411Z,83.45
2019-05-22T12:09:49.523Z,83.83
2019-05-22T12:10:59.345Z,83.93
2019-05-22T12:12:09.594Z,83.83
2019-05-22T12:13:19.750Z,83.73
2019-05-22T12:14:29.935Z,83.73
2019-05-22T12:15:40.063Z,83.36
2019-05-22T12:16:52.987Z,83.64
2019-05-22T12:18:03.366Z,82.68
2019-05-22T12:19:13.501Z,82.97
2019-05-22T12:20:23.632Z,82.87
2019-05-22T12:21:33.524Z,82.3
2019-05-22T12:22:43.689Z,82.53
2019-05-22T12:23:53.897Z,82.49
2019-05-22T12:25:04.029Z,82.49
2019-05-22T12:26:13.909Z,81.86
2019-05-22T12:27:23.783Z,81.67
2019-05-22T12:28:33.939Z,82.06
2019-05-22T12:29:43.824Z,81.67
2019-05-22T12:30:53.976Z,81.82
2019-05-22T12:32:04.140Z,81.48
2019-05-22T12:33:16.722Z,81.77
2019-05-22T12:34:26.841Z,80.9
2019-05-22T12:35:36.352Z,80.9
2019-05-22T12:36:46.498Z,80.81
2019-05-22T12:37:59.562Z,80.04
2019-05-22T12:39:09.955Z,80.04
2019-05-22T12:40:19.891Z,80.62
2019-05-22T12:41:30.031Z,79.75
2019-05-22T12:42:40.176Z,79.89
2019-05-22T12:43:50.324Z,79.7
2019-05-22T12:45:00.450Z,79.41
2019-05-22T12:46:11.391Z,78.93
2019-05-22T12:47:21.530Z,78.45
2019-05-22T12:48:31.655Z,78.74
2019-05-22T12:49:41.782Z,78.74
2019-05-22T12:50:51.951Z,78.64
2019-05-22T12:52:01.843Z,78.84
2019-05-22T12:53:12.065Z,78.93
2019-05-22T12:54:22.197Z,78.64
2019-05-22T12:55:54.981Z,78.64
2019-05-22T12:57:05.118Z,79.18
2019-05-22T12:58:15.248Z,79.51
2019-05-22T12:59:25.392Z,79.75
2019-05-22T13:00:35.607Z,79.85
2019-05-22T13:01:45.739Z,80.24
2019-05-22T13:02:55.889Z,81
2019-05-22T13:04:06.059Z,80.24
2019-05-22T13:05:17.150Z,81
2019-05-22T13:06:27.289Z,81
2019-05-22T13:07:37.473Z,80.52
2019-05-22T13:08:47.698Z,80.62
2019-05-22T13:09:57.876Z,80.14
2019-05-22T13:11:08.247Z,80.9
2019-05-22T13:12:18.386Z,80.81
2019-05-22T13:13:28.559Z,80.43
2019-05-22T13:14:38.810Z,80.04
2019-05-22T13:15:49.061Z,80.29
2019-05-22T13:16:59.209Z,80.24
2019-05-22T13:18:09.572Z,80.9
2019-05-22T13:19:19.834Z,80.48
2019-05-22T13:20:45.061Z,80.24
2019-05-22T13:21:54.986Z,80.1
2019-05-22T13:23:05.117Z,80.24
2019-05-22T13:24:15.256Z,79.85
2019-05-22T13:25:25.638Z,79.57
2019-05-22T13:26:35.536Z,79.66
2019-05-22T13:27:45.803Z,79.47
2019-05-22T13:28:56.014Z,79.18
2019-05-22T13:30:06.250Z,79.47
2019-05-22T13:31:16.408Z,78.61
2019-05-22T13:32:26.619Z,78.89
2019-05-22T13:33:36.740Z,79.08
2019-05-22T13:34:46.911Z,79.47
2019-05-22T13:35:57.107Z,79.47
2019-05-22T13:37:07.296Z,79.85
2019-05-22T13:38:17.519Z,79.37
2019-05-22T13:39:27.675Z,78.99
2019-05-22T13:40:37.869Z,79.47
2019-05-22T13:41:48.030Z,79.37
2019-05-22T13:42:58.227Z,79.18
2019-05-22T13:44:08.127Z,78.8
2019-05-22T13:45:31.121Z,79.08
2019-05-22T13:46:41.272Z,79.28
2019-05-22T13:47:51.420Z,79.28
2019-05-22T13:49:01.595Z,79.37
2019-05-22T13:50:11.779Z,79.28
2019-05-22T13:51:21.963Z,78.42
2019-05-22T13:52:32.121Z,78.42
2019-05-22T13:53:42.302Z,78.13
2019-05-22T13:54:52.461Z,78.42
2019-05-22T13:56:02.241Z,78.42
2019-05-22T13:57:12.556Z,78.03
2019-05-22T13:58:22.700Z,77.84
2019-05-22T13:59:32.848Z,77.88
2019-05-22T14:00:42.991Z,77.26
2019-05-22T14:01:53.121Z,77.21
2019-05-22T14:03:03.284Z,77.4
2019-05-22T14:04:13.438Z,77.11
2019-05-22T14:05:23.586Z,77.75
2019-05-22T14:06:33.783Z,77.21
2019-05-22T14:07:43.924Z,77.11
2019-05-22T14:08:54.111Z,77.5
2019-05-22T14:10:04.280Z,76.25
2019-05-22T14:11:14.422Z,75.62
2019-05-22T14:12:24.567Z,75.14
2019-05-22T14:13:34.734Z,74.95
2019-05-22T14:14:44.873Z,73.99
2019-05-22T14:15:59.667Z,73.16
2019-05-22T14:17:09.830Z,73.26
2019-05-22T14:18:19.774Z,73.35
2019-05-22T14:19:29.994Z,73.35
2019-05-22T14:20:40.265Z,72.68
2019-05-22T14:21:54.182Z,72.68
2019-05-22T14:23:04.522Z,73.26
2019-05-22T14:24:14.700Z,71.53
2019-05-22T14:30:18.230Z,70.38
